Ejstrupholm

DK-0017 · 中日德兰大区, 丹麦

使用的METAR站距离机场29 km。
罗盘
风向 的 风向 100° Ejstrupholm 11/29
风: 6 kt, 2 beaufort

6 kt

1 kt
改变
0 ft 6.000 12.000 18.000 24.000 30.000
Cloud Cloud Cloud Cloud Cloud Cloud
BKN 15.000
Cloud Cloud Cloud Cloud Cloud Cloud Cloud Cloud
OVC 23.000
METAR EKBI 012350Z AUTO 10006KT 4000 BR BKN150/// OVC230/// 05/04 Q1005

METAR Ejstrupholm - DK-0017

Ejstrupholm是,丹麦中的小机场。 该机场位于纬度55,99107和经度9,26730。 该机场有一条跑道: 11/29. 这个机场没有ICAO代码,我们使用DK-0017作为参考。 机场在Kobenhavn FIR中。

该航空气象观测是针对Billund Airport在2024年3月2日 00:50, 当地时间进行的。

机场观察

风向为100°,速度为6 kt。

可见度为4 km。

有碎云在15.000 ft的高度 和 乌云密布在23.000 ft的高度。 破损或更高的上限为15.000 ft。

当前天气为薄雾。 温度为5 °C,阵风为1 °C。 露点为4 °C,相对湿度为93%。 海平面上的气压为1005 hPa (QNH)。

白天

今天,太阳从07:10升起,在17:59降落。 这适用于Ejstrupholm,世界夏令时可能有所不同。 当地时间与世界标准时间之间的时差为+1 小时。 当前,没有夏令时有效。

公司介绍

我们没有关于这个机场的公司信息。

体会

到Vliegles.nl去找飞行课程,跳伞和其他飞行体验。 浏览页面,了解Ejstrupholm附近所有可用的活动。 你也可以使用搜索功能来寻找你所在地附近的特定飞行课程、跳伞或其他飞行体验。

跑道

Id 标题 侧风 逆风 侧风 %
11/29 114°-294° 1 kt 6 kt 24 %

逆风成分最大的方向会被突出显示,并用于横风计算。 这并不一定意味着这个方向在使用。

乌云

15.000 ft BKN 碎云
23.000 ft OVC 乌云密布

温度 & 天气

天气 薄雾
温度 5 °C
露点 4 °C
相对湿度 93%
风寒 1 °C
Kp-index 0 (0-9)

白天

日出
07:12 (6:01)
中午
12:35
日落
17:58

小工具

你想在你的网站上有一个关于Ejstrupholm的当前航空天气(METAR)的小部件吗?

显示HTML代码
?>